ATH weather

Eleftherios Venizelos International Airport
Athens, Attica, Greece

Public forecast

Using degrees Celsius for public forecast. Weather courtesy of forecast.io.

Current aviation weather report (METAR) for Eleftherios Venizelos International Airport

Retrieved 2020/07/05 19:20 UTC (21 minutes ago):

LGAV 051920Z 34009KT 270V010 9999 FEW030 28/17 Q1006 NOSIG

Aviation forecast (TAF) for Eleftherios Venizelos International Airport

Retrieved 2020/07/05 18:12 UTC (1 hour ago):

TAF TAF LGAV 051700Z 0518/0618 36020KT 9999 FEW025 BECMG 0603/0605 02020G30KT FEW020 SCT030